F/V Louis Gaetane 2 — FO2401 — position and weather

sailwx.info

Track history (hours):
 
Tides and Currents Weather Stations Pressure Air Temp Water Temp Dewpoint Dewpoint Depression Visibility Wind Speed Wind Dir Waves Ship Positions

F/V Louis Gaetane 2

Last reported at 2014-Nov-26 14:32 UTC. Time now 2014-Nov-29 06:21 UTC.
Position N 43°22' E 003°42'.

Length 25 m.

Type: Fishing. MMSI: 227913000.

Date/timePositionNaut miles runAvg speedWind from/ knotsBaromVisibWave heightAir tempDewpointWater temp
2014-Nov-26 14:32N 43°22' E 003°42'  
2014-Nov-24 10:18N 43°18' E 004°13'9 4.4
2014-Nov-24 08:11N 43°22' E 004°01'3 2.9
2014-Nov-24 07:05N 43°22' E 003°57'  
2014-Nov-21 11:07N 43°25' E 003°60'34 1.3
2014-Nov-20 08:09N 43°00' E 003°28'3 4.0
2014-Nov-20 07:25N 42°59' E 003°24'34 1.6
2014-Nov-19 10:25N 43°15' E 004°05'5 3.9
2014-Nov-19 09:05N 43°13' E 004°11'3 4.5
2014-Nov-19 08:28N 43°12' E 004°15'4 4.7
2014-Nov-19 07:33N 43°10' E 004°20'3 3.0
2014-Nov-19 06:30N 43°12' E 004°17'4 4.4
2014-Nov-19 05:32N 43°14' E 004°11'4 4.4
2014-Nov-19 04:31N 43°15' E 004°06'19 1.5
2014-Nov-18 15:30N 43°24' E 003°42'0 0.3
2014-Nov-18 14:31N 43°24' E 003°42'12 5.9
2014-Nov-18 12:27N 43°12' E 003°45'5 4.5
2014-Nov-18 11:24N 43°08' E 003°41'2 2.4
2014-Nov-18 10:32N 43°07' E 003°39'4 4.2
2014-Nov-18 09:33N 43°04' E 003°35'9 4.2
2014-Nov-18 07:27N 42°59' E 003°25'28 1.6
2014-Nov-17 14:29N 43°24' E 003°42'6 6.1
2014-Nov-17 13:32N 43°18' E 003°44'5 5.3
2014-Nov-17 12:31N 43°13' E 003°45'  
Track history (hours):
 
Tides and Currents Weather Stations Pressure Air Temp Water Temp Dewpoint Dewpoint Depression Visibility Wind Speed Wind Dir Waves Ship Positions

F/V Louis Gaetane 2

Last reported at 2014-Nov-26 14:32 UTC. Time now 2014-Nov-29 06:21 UTC.
Position N 43°22' E 003°42'.

Length 25 m.

Type: Fishing. MMSI: 227913000.

Date/timePositionNaut miles runAvg speedWind from/ knotsBaromVisibWave heightAir tempDewpointWater temp
2014-Nov-26 14:32N 43°22' E 003°42'  
2014-Nov-24 10:18N 43°18' E 004°13'9 4.4
2014-Nov-24 08:11N 43°22' E 004°01'3 2.9
2014-Nov-24 07:05N 43°22' E 003°57'  
2014-Nov-21 11:07N 43°25' E 003°60'34 1.3
2014-Nov-20 08:09N 43°00' E 003°28'3 4.0
2014-Nov-20 07:25N 42°59' E 003°24'34 1.6
2014-Nov-19 10:25N 43°15' E 004°05'5 3.9
2014-Nov-19 09:05N 43°13' E 004°11'3 4.5
2014-Nov-19 08:28N 43°12' E 004°15'4 4.7
2014-Nov-19 07:33N 43°10' E 004°20'3 3.0
2014-Nov-19 06:30N 43°12' E 004°17'4 4.4
2014-Nov-19 05:32N 43°14' E 004°11'4 4.4
2014-Nov-19 04:31N 43°15' E 004°06'19 1.5
2014-Nov-18 15:30N 43°24' E 003°42'0 0.3
2014-Nov-18 14:31N 43°24' E 003°42'12 5.9
2014-Nov-18 12:27N 43°12' E 003°45'5 4.5
2014-Nov-18 11:24N 43°08' E 003°41'2 2.4
2014-Nov-18 10:32N 43°07' E 003°39'4 4.2
2014-Nov-18 09:33N 43°04' E 003°35'9 4.2
2014-Nov-18 07:27N 42°59' E 003°25'28 1.6
2014-Nov-17 14:29N 43°24' E 003°42'6 6.1
2014-Nov-17 13:32N 43°18' E 003°44'5 5.3
2014-Nov-17 12:31N 43°13' E 003°45'  

Dump ship's entire track history